Terminal Aerodrome Forecast
Issued by NWS

Current Version | Previous Version | Text Only | Print | Product List | Glossary Off
Versions: 1 2 3 4 5 6 7 8 9 10 11 12 13 14 15 16 17

122
FTUS41 KILN 222320
TAFLUK
TAF
KLUK 222320Z 2300/2324 36009KT P6SM FEW090
     FM230100 00000KT P6SM SKC
     FM230700 00000KT 3SM BR SCT002
      TEMPO 2309/2312 1SM BR
     FM231300 04005KT P6SM SKC=

USA.gov is the U.S. government's official web portal to all federal, state and local government web resources and services.